Time;durP1;ratioP1;P1;durP2;ratioP2;P2;SDS_P1;SDS_P2;PMS_P1;PMS_P2;Temp;Humidity;BMP_temperature;BMP_pressure;BME280_temperature;BME280_humidity;BME280_pressure;Samples;Min_cycle;Max_cycle;Signal;HPM_P1;HPM_P2
2022/12/03 00:00:45;;;;;;;43.20;21.90;;;;;;;0.48;89.26;101743.90;103978;1294;59563;-75
2022/12/03 00:03:11;;;;;;;44.10;22.10;;;;;;;0.50;89.42;101747.14;104104;1286;58886;-75
2022/12/03 00:05:38;;;;;;;44.20;22.00;;;;;;;0.51;89.37;101749.48;103815;1294;59185;-76
2022/12/03 00:08:14;;;;;;;43.60;22.20;;;;;;;0.52;89.38;101750.15;104108;1299;227647;-75
2022/12/03 00:10:40;;;;;;;43.10;21.40;;;;;;;0.54;89.68;101748.80;103847;1294;59385;-76
2022/12/03 00:13:07;;;;;;;46.10;22.20;;;;;;;0.55;89.42;101747.34;104008;1299;59306;-76
2022/12/03 00:15:33;;;;;;;42.60;21.30;;;;;;;0.55;89.45;101748.56;104072;1290;59376;-75
2022/12/03 00:18:00;;;;;;;39.10;19.70;;;;;;;0.55;89.50;101746.83;103893;1292;57852;-75
2022/12/03 00:20:26;;;;;;;39.40;19.20;;;;;;;0.54;89.51;101750.01;104036;1301;59811;-76
2022/12/03 00:22:53;;;;;;;38.90;20.10;;;;;;;0.50;89.45;101743.47;103771;1294;59306;-76
2022/12/03 00:25:19;;;;;;;40.20;20.50;;;;;;;0.47;89.68;101748.34;104205;1297;59783;-75
2022/12/03 00:27:45;;;;;;;41.90;20.60;;;;;;;0.46;89.74;101746.83;104069;1287;59735;-75
2022/12/03 00:30:13;;;;;;;40.80;20.70;;;;;;;0.45;89.84;101743.55;103843;1297;59719;-75
2022/12/03 00:32:39;;;;;;;39.90;19.80;;;;;;;0.44;89.93;101744.98;103982;1294;59676;-75
2022/12/03 00:35:06;;;;;;;42.20;20.10;;;;;;;0.43;90.02;101744.36;104089;1299;59671;-76
2022/12/03 00:37:34;;;;;;;41.20;20.70;;;;;;;0.42;90.03;101744.08;103881;1300;73019;-75
2022/12/03 00:40:02;;;;;;;42.00;21.00;;;;;;;0.41;89.95;101743.23;103701;1299;70905;-75
2022/12/03 00:42:28;;;;;;;41.70;19.50;;;;;;;0.38;89.89;101740.23;103943;1293;71890;-75
2022/12/03 00:44:55;;;;;;;41.40;19.40;;;;;;;0.38;89.97;101740.97;103767;1301;59291;-76
2022/12/03 00:47:21;;;;;;;44.10;19.40;;;;;;;0.38;90.02;101736.77;104309;1287;59166;-75
2022/12/03 00:49:47;;;;;;;42.10;20.40;;;;;;;0.38;90.04;101738.88;103893;1296;60156;-76
2022/12/03 00:52:14;;;;;;;41.30;19.30;;;;;;;0.36;89.89;101734.61;103804;1286;59533;-74
2022/12/03 00:54:40;;;;;;;39.90;18.20;;;;;;;0.35;90.00;101736.79;103953;1300;60776;-75
2022/12/03 00:57:07;;;;;;;40.60;19.80;;;;;;;0.32;90.17;101736.56;103824;1293;59694;-75
2022/12/03 00:59:33;;;;;;;42.60;20.50;;;;;;;0.32;90.19;101734.00;103823;1293;59834;-75
2022/12/03 01:02:00;;;;;;;35.60;17.60;;;;;;;0.31;90.22;101733.36;103767;1301;59787;-75
2022/12/03 01:04:26;;;;;;;40.90;19.80;;;;;;;0.28;90.37;101738.73;103929;1300;58325;-75
2022/12/03 01:06:53;;;;;;;41.60;19.40;;;;;;;0.27;90.42;101741.05;104244;1294;58769;-75
2022/12/03 01:09:19;;;;;;;41.10;20.00;;;;;;;0.26;90.50;101739.02;103620;1297;59479;-75
2022/12/03 01:11:46;;;;;;;39.90;19.30;;;;;;;0.27;90.60;101741.76;103603;1300;59276;-74
2022/12/03 01:14:16;;;;;;;40.90;19.70;;;;;;;0.28;90.62;101739.09;103786;1296;59759;-75
2022/12/03 01:16:43;;;;;;;39.30;18.10;;;;;;;0.28;90.80;101742.20;103973;1301;69519;-74
2022/12/03 01:19:14;;;;;;;40.60;19.30;;;;;;;0.26;90.80;101742.34;104038;1297;72560;-75
2022/12/03 01:21:42;;;;;;;40.60;19.40;;;;;;;0.22;90.99;101746.34;103715;1293;61500;-75
2022/12/03 01:24:09;;;;;;;40.60;19.10;;;;;;;0.20;91.08;101750.12;104208;1299;60123;-75
2022/12/03 01:26:36;;;;;;;44.30;19.90;;;;;;;0.18;91.49;101748.46;104686;1301;71393;-75
2022/12/03 01:29:03;;;;;;;46.70;21.90;;;;;;;0.19;91.59;101751.21;104461;1293;71090;-75
2022/12/03 01:34:15;;;;;;;45.30;20.90;;;;;;;0.20;91.62;101747.11;104598;1296;59782;-75
2022/12/03 01:36:44;;;;;;;46.80;20.60;;;;;;;0.20;91.66;101750.60;104578;1293;59773;-74
2022/12/03 01:39:11;;;;;;;47.80;20.20;;;;;;;0.20;91.79;101748.20;104749;1293;71844;-76
2022/12/03 01:41:38;;;;;;;46.20;19.70;;;;;;;0.17;91.78;101747.12;104204;1300;59252;-75
2022/12/03 01:44:26;;;;;;;49.40;21.60;;;;;;;0.15;91.98;101746.35;105214;1294;71147;-76
2022/12/03 01:46:55;;;;;;;45.50;21.10;;;;;;;0.14;91.79;101748.15;104918;1297;61242;-74
2022/12/03 01:49:26;;;;;;;50.40;22.90;;;;;;;0.12;91.91;101746.69;105377;1292;60614;-76
2022/12/03 01:51:54;;;;;;;46.20;21.70;;;;;;;0.14;91.95;101745.02;105006;1289;72868;-75
2022/12/03 01:54:30;;;;;;;44.00;20.60;;;;;;;0.16;92.19;101745.13;104714;1301;70826;-75
2022/12/03 01:56:57;;;;;;;47.50;21.60;;;;;;;0.14;92.12;101744.52;104338;1298;71395;-76
2022/12/03 01:59:33;;;;;;;48.80;21.30;;;;;;;0.13;91.91;101746.69;104058;1299;61265;-76
2022/12/03 02:02:10;;;;;;;48.70;22.70;;;;;;;0.12;91.95;101746.73;104956;1299;58357;-76
2022/12/03 02:04:36;;;;;;;48.40;22.50;;;;;;;0.11;92.01;101745.56;105358;1299;71385;-76
2022/12/03 02:07:16;;;;;;;45.90;21.00;;;;;;;0.12;92.02;101744.45;105559;1293;70469;-74
2022/12/03 02:09:43;;;;;;;42.90;20.40;;;;;;;0.14;92.07;101743.66;105474;1289;72573;-74
2022/12/03 02:12:10;;;;;;;46.40;22.50;;;;;;;0.14;91.92;101745.70;105525;1292;60037;-74
2022/12/03 02:14:36;;;;;;;42.80;20.60;;;;;;;0.15;91.83;101748.10;105382;1293;60243;-74
2022/12/03 02:17:03;;;;;;;44.50;20.90;;;;;;;0.14;91.78;101744.17;105111;1300;71769;-75
2022/12/03 02:19:29;;;;;;;43.20;20.00;;;;;;;0.12;91.56;101747.77;104043;1300;59645;-75
2022/12/03 02:22:02;;;;;;;44.50;21.30;;;;;;;0.09;91.58;101746.67;103945;1301;59817;-75
2022/12/03 02:24:38;;;;;;;49.10;21.60;;;;;;;0.11;91.67;101745.04;103846;1293;60967;-75
2022/12/03 02:27:05;;;;;;;47.20;22.20;;;;;;;0.13;91.82;101747.70;103888;1299;60304;-75
2022/12/03 02:29:31;;;;;;;41.80;20.10;;;;;;;0.16;91.78;101747.90;104077;1295;72795;-75
2022/12/03 02:31:58;;;;;;;44.00;21.30;;;;;;;0.15;91.67;101745.66;104105;1293;59564;-75
2022/12/03 02:34:37;;;;;;;44.00;20.20;;;;;;;0.15;91.64;101748.27;103907;1300;59688;-75
2022/12/03 02:37:06;;;;;;;42.70;20.50;;;;;;;0.14;91.51;101742.08;103582;1299;60971;-75
2022/12/03 02:39:35;;;;;;;42.60;20.80;;;;;;;0.12;91.54;101744.98;104249;1293;59365;-75
2022/12/03 02:44:48;;;;;;;42.10;19.20;;;;;;;0.04;91.20;101739.83;104237;1294;70959;-74
2022/12/03 02:47:14;;;;;;;43.10;20.70;;;;;;;0.00;91.30;101739.68;103678;1301;59570;-74
2022/12/03 02:49:42;;;;;;;42.40;19.30;;;;;;;-0.01;91.38;101739.06;103969;1301;59662;-75
2022/12/03 02:52:08;;;;;;;47.60;20.10;;;;;;;-0.01;91.54;101740.62;103911;1302;60196;-75
2022/12/03 02:54:35;;;;;;;40.40;19.20;;;;;;;-0.02;91.51;101736.48;103743;1293;72822;-76
2022/12/03 02:57:01;;;;;;;44.50;19.40;;;;;;;-0.04;91.32;101738.66;103696;1296;59563;-76
2022/12/03 02:59:28;;;;;;;37.50;17.60;;;;;;;-0.05;91.57;101738.71;104173;1293;59695;-76
2022/12/03 03:01:54;;;;;;;40.40;19.50;;;;;;;-0.05;91.60;101742.39;104084;1296;59747;-76
2022/12/03 03:04:23;;;;;;;39.60;18.60;;;;;;;-0.05;91.55;101744.80;103510;1300;61404;-75
2022/12/03 03:06:51;;;;;;;34.50;17.70;;;;;;;-0.05;91.38;101746.55;103970;1301;71891;-74
2022/12/03 03:09:19;;;;;;;38.70;18.70;;;;;;;-0.06;91.37;101746.61;104386;1300;69798;-74
2022/12/03 03:11:45;;;;;;;38.90;18.70;;;;;;;-0.07;91.23;101741.92;103603;1293;72472;-74
2022/12/03 03:14:12;;;;;;;35.70;16.90;;;;;;;-0.07;91.27;101741.59;103982;1289;59721;-75
2022/12/03 03:16:38;;;;;;;39.50;18.00;;;;;;;-0.07;91.30;101744.38;103713;1294;59434;-74
2022/12/03 03:19:05;;;;;;;36.50;17.60;;;;;;;-0.07;91.18;101744.73;104628;1289;74289;-75
2022/12/03 03:21:32;;;;;;;36.80;17.50;;;;;;;-0.06;91.10;101742.63;103907;1297;59542;-75
2022/12/03 03:23:58;;;;;;;37.90;18.20;;;;;;;-0.06;91.24;101738.79;104589;1293;71675;-74
2022/12/03 03:26:25;;;;;;;36.40;17.50;;;;;;;-0.06;91.10;101741.91;104093;1293;59694;-74
2022/12/03 03:28:51;;;;;;;32.40;15.90;;;;;;;-0.06;91.07;101742.92;103940;1293;59817;-74
2022/12/03 03:31:21;;;;;;;35.70;16.60;;;;;;;-0.07;90.84;101741.24;103485;1294;59779;-74
2022/12/03 03:33:48;;;;;;;36.30;17.10;;;;;;;-0.05;90.93;101740.14;103887;1293;71335;-74
2022/12/03 03:36:15;;;;;;;37.20;18.40;;;;;;;-0.05;90.90;101736.44;103989;1295;71125;-74
2022/12/03 03:38:42;;;;;;;35.20;17.00;;;;;;;-0.03;90.96;101730.08;104075;1295;59830;-74
2022/12/03 03:41:10;;;;;;;36.70;17.40;;;;;;;-0.02;90.73;101730.55;104509;1285;59650;-74
2022/12/03 03:43:38;;;;;;;37.20;17.50;;;;;;;-0.01;90.66;101727.39;103635;1292;71465;-74
2022/12/03 03:46:06;;;;;;;31.70;16.20;;;;;;;-0.03;90.64;101727.12;103813;1292;70964;-74
2022/12/03 03:48:34;;;;;;;31.90;16.20;;;;;;;-0.05;90.44;101723.77;104124;1295;72454;-74
2022/12/03 03:51:02;;;;;;;30.90;15.40;;;;;;;-0.06;90.48;101720.04;103416;1293;60156;-74
2022/12/03 03:53:29;;;;;;;33.10;16.00;;;;;;;-0.08;90.49;101721.70;104045;1297;59723;-74
2022/12/03 03:55:56;;;;;;;34.70;16.60;;;;;;;-0.10;90.72;101723.16;103904;1294;73145;-74
2022/12/03 03:58:22;;;;;;;33.30;16.20;;;;;;;-0.11;90.64;101723.56;104360;1293;59612;-74
2022/12/03 04:00:49;;;;;;;32.40;15.30;;;;;;;-0.12;90.66;101726.20;104143;1303;60304;-74
2022/12/03 04:03:15;;;;;;;32.70;15.60;;;;;;;-0.14;90.88;101719.36;103722;1295;61222;-74
2022/12/03 04:05:42;;;;;;;30.40;15.60;;;;;;;-0.14;90.77;101722.83;103988;1293;60578;-74
2022/12/03 04:08:08;;;;;;;35.10;15.90;;;;;;;-0.15;90.87;101723.42;103683;1286;59373;-74
2022/12/03 04:13:20;;;;;;;35.40;16.90;;;;;;;-0.15;90.97;101720.98;103616;1300;72283;-75
2022/12/03 04:15:46;;;;;;;32.70;15.50;;;;;;;-0.15;90.98;101724.81;103724;1285;60483;-75
2022/12/03 04:22:38;;;;;;;36.50;17.10;;;;;;;-0.15;90.72;101726.38;104224;1296;73085;-75
2022/12/03 04:23:44;;;;;;;35.00;16.30;;;;;;;-0.14;90.91;101724.61;103958;1293;71034;-74
2022/12/03 04:28:56;;;;;;;35.90;17.40;;;;;;;-0.12;90.74;101720.64;104051;1298;62066;-75
2022/12/03 04:36:53;;;;;;;36.40;17.20;;;;;;;-0.17;90.48;101720.77;104022;1296;68912;-75
2022/12/03 04:39:20;;;;;;;31.90;15.70;;;;;;;-0.22;90.24;101723.95;103960;1293;60449;-74
2022/12/03 04:41:47;;;;;;;34.10;15.10;;;;;;;-0.24;90.24;101722.32;103808;1277;60993;-74
2022/12/03 04:46:59;;;;;;;43.50;18.50;;;;;;;-0.31;89.97;101724.60;104102;1293;72637;-75
2022/12/03 04:49:26;;;;;;;40.80;17.50;;;;;;;-0.34;89.89;101719.93;103547;1287;70864;-74
2022/12/03 04:51:52;;;;;;;45.40;19.70;;;;;;;-0.36;89.86;101718.10;103912;1285;59805;-75
2022/12/03 04:54:18;;;;;;;45.80;20.30;;;;;;;-0.38;89.93;101717.84;104685;1293;60496;-75
2022/12/03 04:56:45;;;;;;;46.50;21.40;;;;;;;-0.37;90.18;101715.71;103654;1293;60526;-75
2022/12/03 04:59:12;;;;;;;47.40;21.70;;;;;;;-0.38;90.05;101715.58;103995;1300;59721;-75
2022/12/03 05:01:42;;;;;;;47.80;20.30;;;;;;;-0.39;89.96;101716.00;103928;1296;71108;-74
2022/12/03 05:04:10;;;;;;;47.30;21.70;;;;;;;-0.41;89.98;101714.02;104656;1294;71821;-75
2022/12/03 05:06:36;;;;;;;50.90;22.90;;;;;;;-0.46;89.92;101714.44;103472;1294;60593;-74
2022/12/03 05:09:03;;;;;;;48.10;22.50;;;;;;;-0.47;90.04;101714.99;103670;1302;60433;-75
2022/12/03 05:11:30;;;;;;;51.10;23.10;;;;;;;-0.46;90.14;101714.24;104163;1300;74882;-75
2022/12/03 05:13:57;;;;;;;52.60;23.00;;;;;;;-0.44;90.34;101713.96;105025;1289;71164;-75
2022/12/03 05:16:23;;;;;;;51.60;23.00;;;;;;;-0.39;90.33;101715.14;103773;1294;71397;-75
2022/12/03 05:18:50;;;;;;;50.20;21.90;;;;;;;-0.38;89.98;101713.35;103863;1293;61514;-74
2022/12/03 05:21:16;;;;;;;50.50;22.40;;;;;;;-0.39;89.86;101709.20;103846;1293;60944;-74
2022/12/03 05:23:43;;;;;;;52.10;22.60;;;;;;;-0.39;89.89;101707.48;104089;1293;60600;-75
2022/12/03 05:26:09;;;;;;;47.50;22.60;;;;;;;-0.43;89.62;101703.81;104122;1294;59316;-75
2022/12/03 05:28:36;;;;;;;50.00;23.20;;;;;;;-0.45;89.47;101705.65;103544;1294;71057;-75
2022/12/03 05:31:03;;;;;;;46.20;21.70;;;;;;;-0.46;89.43;101704.50;104220;1293;60682;-75
2022/12/03 05:33:30;;;;;;;49.70;21.90;;;;;;;-0.46;89.44;101704.70;104403;1300;60488;-75
2022/12/03 05:35:57;;;;;;;49.80;22.20;;;;;;;-0.46;89.36;101709.05;104110;1301;72320;-75
2022/12/03 05:38:24;;;;;;;48.80;21.20;;;;;;;-0.47;89.28;101704.75;104138;1294;71225;-75
2022/12/03 05:40:50;;;;;;;48.60;22.50;;;;;;;-0.47;89.33;101704.75;103289;1294;60528;-74
2022/12/03 05:43:16;;;;;;;51.50;22.40;;;;;;;-0.48;89.29;101705.30;103786;1294;60449;-74
2022/12/03 05:45:43;;;;;;;55.90;25.30;;;;;;;-0.47;89.35;101701.60;103938;1293;61548;-74
2022/12/03 05:48:12;;;;;;;51.70;23.10;;;;;;;-0.43;89.51;101701.59;103888;1293;73099;-74
2022/12/03 05:50:42;;;;;;;52.50;23.90;;;;;;;-0.43;89.55;101702.97;103821;1294;71566;-74
2022/12/03 05:53:08;;;;;;;53.00;24.10;;;;;;;-0.47;89.44;101698.70;103921;1295;72443;-74
2022/12/03 05:55:35;;;;;;;62.50;26.20;;;;;;;-0.50;89.57;101704.17;104245;1295;60852;-74
2022/12/03 05:58:02;;;;;;;59.10;26.10;;;;;;;-0.48;89.78;101703.58;103629;1300;60666;-75
2022/12/03 06:00:31;;;;;;;60.80;26.70;;;;;;;-0.48;89.84;101706.52;103884;1293;72292;-74
2022/12/03 06:02:58;;;;;;;57.40;26.10;;;;;;;-0.48;89.75;101704.46;103616;1300;71109;-74
2022/12/03 06:05:25;;;;;;;62.90;26.20;;;;;;;-0.47;89.88;101707.20;103981;1297;71628;-74
2022/12/03 06:07:51;;;;;;;57.40;26.40;;;;;;;-0.46;89.86;101704.70;103641;1296;60491;-74
2022/12/03 06:10:22;;;;;;;62.30;28.00;;;;;;;-0.45;89.89;101708.46;104046;1296;60552;-73
2022/12/03 06:12:49;;;;;;;61.70;26.60;;;;;;;-0.46;89.91;101707.98;103850;1296;74322;-73
2022/12/03 06:15:17;;;;;;;61.10;26.40;;;;;;;-0.46;89.91;101710.41;103931;1292;71139;-74
2022/12/03 06:17:43;;;;;;;58.70;25.80;;;;;;;-0.46;89.91;101712.68;103685;1304;71859;-74
2022/12/03 06:20:16;;;;;;;61.40;27.20;;;;;;;-0.47;89.87;101709.77;104160;1296;60463;-74
2022/12/03 06:22:43;;;;;;;63.60;27.50;;;;;;;-0.48;89.87;101707.20;104089;1297;60722;-73
2022/12/03 06:25:10;;;;;;;60.70;26.80;;;;;;;-0.47;90.04;101707.52;103831;1295;73458;-75
2022/12/03 06:27:37;;;;;;;58.00;26.30;;;;;;;-0.47;89.81;101705.62;104154;1300;71032;-74
2022/12/03 06:30:05;;;;;;;60.40;27.80;;;;;;;-0.47;89.81;101707.52;103773;1296;60847;-74
2022/12/03 06:32:31;;;;;;;57.40;24.80;;;;;;;-0.47;90.02;101706.81;103742;1293;60990;-74
2022/12/03 06:34:58;;;;;;;57.50;25.80;;;;;;;-0.51;89.85;101702.20;103729;1300;60746;-74
2022/12/03 06:37:24;;;;;;;56.70;26.20;;;;;;;-0.54;89.75;101700.56;103714;1300;60465;-74
2022/12/03 06:39:51;;;;;;;57.10;25.50;;;;;;;-0.56;89.80;101703.98;104245;1300;60289;-74
2022/12/03 06:42:17;;;;;;;61.10;27.10;;;;;;;-0.57;89.70;101707.88;103602;1294;60521;-74
2022/12/03 06:44:43;;;;;;;52.90;24.70;;;;;;;-0.58;89.72;101703.56;104369;1303;60603;-74
2022/12/03 06:47:10;;;;;;;54.60;25.20;;;;;;;-0.57;89.72;101706.50;103787;1291;59466;-74
2022/12/03 06:49:36;;;;;;;62.80;26.30;;;;;;;-0.57;89.78;101704.94;104038;1292;59985;-74
2022/12/03 06:52:03;;;;;;;58.80;25.00;;;;;;;-0.58;89.66;101707.41;103738;1294;60562;-74
2022/12/03 06:54:29;;;;;;;57.50;25.90;;;;;;;-0.60;89.63;101706.95;104324;1293;60591;-74
2022/12/03 06:56:56;;;;;;;59.50;25.60;;;;;;;-0.60;89.68;101706.80;103927;1294;60682;-74
2022/12/03 06:59:22;;;;;;;57.80;26.10;;;;;;;-0.60;89.68;101706.08;104289;1301;61176;-74
2022/12/03 07:01:49;;;;;;;52.80;24.10;;;;;;;-0.59;89.62;101703.65;104066;1299;60415;-74
2022/12/03 07:04:15;;;;;;;55.70;24.60;;;;;;;-0.60;89.36;101700.05;103713;1291;61053;-75
2022/12/03 07:06:42;;;;;;;57.20;25.50;;;;;;;-0.60;89.26;101703.14;103829;1292;60540;-76
2022/12/03 07:09:09;;;;;;;51.80;24.80;;;;;;;-0.61;89.25;101703.20;103667;1299;60684;-75
2022/12/03 07:11:41;;;;;;;55.50;25.00;;;;;;;-0.60;89.32;101698.98;104088;1293;59631;-75
2022/12/03 07:14:09;;;;;;;61.30;27.40;;;;;;;-0.61;89.22;101699.71;104157;1299;74439;-75
2022/12/03 07:16:37;;;;;;;58.60;27.10;;;;;;;-0.60;89.20;101695.16;103635;1293;70648;-75
2022/12/03 07:19:05;;;;;;;56.30;25.90;;;;;;;-0.59;89.17;101695.31;103745;1294;72296;-75
2022/12/03 07:21:32;;;;;;;57.80;25.80;;;;;;;-0.60;88.99;101690.10;104032;1294;61002;-75
2022/12/03 07:23:59;;;;;;;56.40;26.60;;;;;;;-0.61;88.79;101692.45;103755;1291;59771;-75
2022/12/03 07:26:26;;;;;;;62.80;27.50;;;;;;;-0.65;88.61;101690.40;103837;1296;74119;-75
2022/12/03 07:28:52;;;;;;;57.00;24.70;;;;;;;-0.66;88.75;101687.14;104189;1301;60543;-75
2022/12/03 07:31:19;;;;;;;56.10;25.10;;;;;;;-0.69;88.53;101689.88;104229;1285;60560;-75
2022/12/03 07:33:46;;;;;;;58.30;25.20;;;;;;;-0.73;88.54;101689.55;103799;1293;59589;-75
2022/12/03 07:36:12;;;;;;;60.10;27.00;;;;;;;-0.72;88.72;101693.02;104201;1295;59097;-75
2022/12/03 07:38:39;;;;;;;59.50;26.90;;;;;;;-0.71;88.91;101689.98;103982;1296;72551;-75
2022/12/03 07:41:05;;;;;;;62.40;26.30;;;;;;;-0.69;88.89;101687.27;103614;1293;60564;-75
2022/12/03 07:43:32;;;;;;;59.90;27.20;;;;;;;-0.67;88.76;101688.21;103834;1294;72777;-75
2022/12/03 07:45:58;;;;;;;61.60;27.70;;;;;;;-0.66;88.90;101687.83;104091;1301;60491;-75
2022/12/03 07:48:25;;;;;;;56.70;26.20;;;;;;;-0.65;89.01;101687.40;103659;1301;60582;-75
2022/12/03 07:50:51;;;;;;;62.10;27.30;;;;;;;-0.65;88.86;101684.80;104244;1284;60580;-75
2022/12/03 07:53:18;;;;;;;63.80;28.60;;;;;;;-0.66;88.69;101684.52;103375;1298;59757;-76
2022/12/03 07:55:44;;;;;;;63.00;28.50;;;;;;;-0.67;88.72;101684.92;104397;1299;60410;-76
2022/12/03 07:58:11;;;;;;;60.50;26.00;;;;;;;-0.65;88.81;101683.97;103937;1299;60674;-76
2022/12/03 08:00:37;;;;;;;61.20;26.90;;;;;;;-0.66;88.85;101682.79;103918;1295;61093;-75
2022/12/03 08:03:04;;;;;;;63.80;27.30;;;;;;;-0.68;88.66;101679.40;103587;1295;60508;-75
2022/12/03 08:05:30;;;;;;;61.90;27.10;;;;;;;-0.70;88.61;101677.61;104231;1298;59520;-74
2022/12/03 08:07:56;;;;;;;61.00;27.40;;;;;;;-0.70;88.87;101677.92;103853;1298;59936;-76
2022/12/03 08:10:24;;;;;;;65.20;28.90;;;;;;;-0.69;89.00;101679.66;104214;1297;60489;-74
2022/12/03 08:12:52;;;;;;;65.90;29.10;;;;;;;-0.68;89.10;101677.70;103658;1300;60501;-74
2022/12/03 08:15:25;;;;;;;62.40;28.40;;;;;;;-0.67;89.03;101677.27;104342;1294;71744;-74
2022/12/03 08:17:57;;;;;;;69.30;28.80;;;;;;;-0.66;89.05;101678.79;104576;1299;69725;-75
2022/12/03 08:20:32;;;;;;;64.70;28.00;;;;;;;-0.67;88.93;101676.41;104048;1294;71310;-75
2022/12/03 08:22:58;;;;;;;69.40;28.90;;;;;;;-0.68;88.92;101674.36;103440;1294;59956;-74
2022/12/03 08:25:28;;;;;;;59.90;26.70;;;;;;;-0.69;88.85;101673.02;104019;1294;60494;-75
2022/12/03 08:28:23;;;;;;;60.60;27.30;;;;;;;-0.70;89.01;101677.08;105400;1294;74275;-76
2022/12/03 08:31:11;;;;;;;69.40;29.10;;;;;;;-0.72;89.05;101672.84;105154;1285;70348;-76
2022/12/03 08:33:39;;;;;;;60.40;26.30;;;;;;;-0.69;89.34;101673.89;104309;1294;71507;-75
2022/12/03 08:36:15;;;;;;;69.40;30.00;;;;;;;-0.69;89.16;101672.85;104165;1303;61044;-74
2022/12/03 08:38:50;;;;;;;66.80;27.40;;;;;;;-0.66;89.30;101674.60;103875;1292;59268;-74
2022/12/03 08:42:40;;;;;;;67.40;30.50;;;;;;;-0.63;89.43;101673.92;103953;1287;73647;-74
2022/12/03 08:44:20;;;;;;;60.30;27.80;;;;;;;-0.59;89.41;101675.47;104140;1292;69720;-75
2022/12/03 08:47:04;;;;;;;64.00;28.50;;;;;;;-0.56;89.22;101673.61;103808;1296;73406;-74
2022/12/03 08:49:31;;;;;;;69.80;31.00;;;;;;;-0.54;89.13;101673.66;104238;1299;59974;-74
2022/12/03 08:52:12;;;;;;;64.20;30.00;;;;;;;-0.52;89.11;101677.23;104283;1291;60428;-73
2022/12/03 08:54:42;;;;;;;65.80;30.10;;;;;;;-0.50;89.12;101674.85;104212;1298;72231;-74
2022/12/03 08:57:30;;;;;;;67.20;30.70;;;;;;;-0.50;88.89;101672.59;103489;1297;71248;-74
2022/12/03 09:00:19;;;;;;;68.00;29.40;;;;;;;-0.51;88.68;101670.52;102912;1297;73345;-74
2022/12/03 09:03:06;;;;;;;69.80;30.70;;;;;;;-0.50;88.73;101667.38;103231;1296;61032;-74
2022/12/03 09:05:38;;;;;;;63.40;29.20;;;;;;;-0.52;88.53;101667.33;102991;1302;60543;-74
2022/12/03 09:08:14;;;;;;;65.20;29.00;;;;;;;-0.54;88.44;101667.75;103256;1297;73007;-74
2022/12/03 09:10:44;;;;;;;65.50;30.20;;;;;;;-0.58;88.28;101666.55;103392;1302;69709;-74
2022/12/03 09:13:16;;;;;;;62.80;29.90;;;;;;;-0.58;88.30;101669.89;103983;1301;73954;-75
2022/12/03 09:15:44;;;;;;;64.10;30.00;;;;;;;-0.58;88.45;101670.23;103896;1299;60542;-74
2022/12/03 09:18:15;;;;;;;63.90;30.40;;;;;;;-0.58;88.43;101665.87;103195;1300;61121;-75
2022/12/03 09:20:41;;;;;;;59.50;27.80;;;;;;;-0.58;88.58;101662.56;103062;1300;60362;-74
2022/12/03 09:23:07;;;;;;;67.50;30.10;;;;;;;-0.56;88.53;101661.92;103830;1293;60982;-75
2022/12/03 09:25:34;;;;;;;65.50;29.10;;;;;;;-0.56;88.42;101665.77;103251;1301;61761;-73
2022/12/03 09:28:00;;;;;;;73.60;31.00;;;;;;;-0.57;88.50;101664.06;103744;1293;60531;-73
2022/12/03 09:30:27;;;;;;;69.00;30.70;;;;;;;-0.55;88.54;101662.95;103127;1300;60804;-72
2022/12/03 09:32:53;;;;;;;63.70;30.60;;;;;;;-0.56;88.53;101665.09;103957;1302;61866;-72
2022/12/03 09:35:20;;;;;;;63.60;29.00;;;;;;;-0.55;88.48;101664.84;103180;1298;60845;-72
2022/12/03 09:37:46;;;;;;;69.70;30.00;;;;;;;-0.54;88.61;101666.72;103100;1300;60583;-74
2022/12/03 09:40:13;;;;;;;63.20;29.40;;;;;;;-0.56;88.47;101666.46;103183;1293;61096;-72
2022/12/03 09:42:40;;;;;;;67.10;30.40;;;;;;;-0.56;88.49;101665.23;103667;1293;61004;-73
2022/12/03 09:45:11;;;;;;;65.40;31.00;;;;;;;-0.54;88.57;101662.70;103569;1300;72610;-73
2022/12/03 09:47:44;;;;;;;66.00;31.40;;;;;;;-0.52;88.62;101655.49;103070;1302;71042;-73
2022/12/03 09:50:15;;;;;;;64.40;30.40;;;;;;;-0.49;88.76;101654.95;103865;1294;72984;-73
2022/12/03 09:52:41;;;;;;;69.80;32.40;;;;;;;-0.47;88.54;101655.37;103289;1294;60498;-73
2022/12/03 09:55:18;;;;;;;67.50;31.50;;;;;;;-0.44;88.59;101654.19;103149;1297;61453;-73
2022/12/03 09:57:44;;;;;;;70.70;32.20;;;;;;;-0.39;88.56;101653.94;102912;1300;74125;-73
2022/12/03 10:00:25;;;;;;;66.20;32.10;;;;;;;-0.35;88.51;101651.13;103388;1293;60780;-73
2022/12/03 10:02:55;;;;;;;70.40;31.40;;;;;;;-0.31;88.50;101652.67;103013;1293;72094;-73
2022/12/03 10:05:22;;;;;;;62.40;29.10;;;;;;;-0.28;88.51;101651.60;103791;1300;60452;-74
2022/12/03 10:07:51;;;;;;;61.40;30.30;;;;;;;-0.27;88.30;101651.07;103890;1300;60313;-74
2022/12/03 10:10:21;;;;;;;67.10;32.80;;;;;;;-0.28;88.11;101647.66;103823;1297;71296;-74
2022/12/03 10:12:51;;;;;;;61.50;30.80;;;;;;;-0.28;88.07;101648.31;103427;1301;72556;-73
2022/12/03 10:15:20;;;;;;;65.20;32.80;;;;;;;-0.27;88.00;101644.61;103180;1299;70137;-74
2022/12/03 10:17:49;;;;;;;61.20;30.30;;;;;;;-0.27;87.86;101638.86;102989;1293;61817;-74
2022/12/03 10:20:20;;;;;;;65.40;30.50;;;;;;;-0.25;87.92;101637.71;103045;1296;60482;-74
2022/12/03 10:22:47;;;;;;;61.80;29.70;;;;;;;-0.22;87.87;101633.74;104001;1287;73232;-74
2022/12/03 10:25:20;;;;;;;64.80;30.80;;;;;;;-0.18;87.83;101628.35;103954;1302;70908;-74
2022/12/03 10:27:55;;;;;;;62.40;30.30;;;;;;;-0.15;87.56;101620.19;103031;1300;72442;-74
2022/12/03 10:30:25;;;;;;;63.70;31.10;;;;;;;-0.11;87.57;101620.98;103362;1294;61163;-73
2022/12/03 10:32:52;;;;;;;62.10;31.50;;;;;;;-0.08;87.62;101620.98;102907;1296;60526;-73
2022/12/03 10:35:21;;;;;;;64.30;29.80;;;;;;;-0.06;87.05;101619.84;103262;1297;60494;-73
2022/12/03 10:38:03;;;;;;;59.70;29.40;;;;;;;-0.03;87.14;101618.12;103638;1297;69094;-73
2022/12/03 10:40:39;;;;;;;64.70;31.40;;;;;;;0.01;87.01;101613.94;103030;1301;71286;-73
2022/12/03 10:43:21;;;;;;;62.60;31.20;;;;;;;0.04;87.01;101609.03;104096;1299;61703;-74
2022/12/03 10:46:00;;;;;;;65.40;30.50;;;;;;;0.07;86.82;101613.60;103741;1292;60553;-74
2022/12/03 10:48:30;;;;;;;59.30;31.80;;;;;;;0.09;86.58;101607.22;104034;1293;72933;-74
2022/12/03 10:51:05;;;;;;;61.80;31.40;;;;;;;0.11;86.27;101610.60;103216;1294;71195;-74
2022/12/03 10:53:35;;;;;;;61.60;31.50;;;;;;;0.15;86.19;101607.76;103225;1301;71292;-74
2022/12/03 10:56:07;;;;;;;56.40;30.10;;;;;;;0.20;86.32;101602.44;103074;1294;60949;-74
2022/12/03 10:58:36;;;;;;;59.10;30.50;;;;;;;0.27;86.30;101600.48;103120;1301;60388;-75
2022/12/03 11:01:12;;;;;;;56.80;30.10;;;;;;;0.30;85.93;101599.77;104636;1297;73695;-75
2022/12/03 11:03:39;;;;;;;58.50;28.90;;;;;;;0.33;85.61;101600.14;104285;1292;69662;-74
2022/12/03 11:06:08;;;;;;;55.30;29.40;;;;;;;0.34;85.17;101600.77;103739;1301;60484;-74
2022/12/03 11:08:35;;;;;;;58.60;30.30;;;;;;;0.34;84.76;101596.77;103313;1302;61214;-74
2022/12/03 11:11:04;;;;;;;57.40;31.00;;;;;;;0.35;84.82;101593.20;103964;1302;60595;-75
2022/12/03 11:13:31;;;;;;;56.50;29.90;;;;;;;0.37;84.71;101588.57;103478;1301;73654;-74
2022/12/03 11:16:02;;;;;;;56.60;29.30;;;;;;;0.42;85.07;101585.54;103891;1300;60557;-74
2022/12/03 11:18:34;;;;;;;54.50;29.30;;;;;;;0.47;84.90;101588.24;103483;1301;71976;-72
2022/12/03 11:21:04;;;;;;;54.70;30.90;;;;;;;0.46;84.12;101583.90;104873;1284;60621;-74
2022/12/03 11:23:43;;;;;;;55.70;29.00;;;;;;;0.47;84.22;101584.19;105514;1287;59204;-74
2022/12/03 11:26:14;;;;;;;56.70;29.80;;;;;;;0.51;84.24;101581.70;105652;1284;73195;-75
2022/12/03 11:28:44;;;;;;;51.10;28.60;;;;;;;0.54;84.10;101582.58;103796;1300;72188;-75
2022/12/03 11:31:33;;;;;;;58.20;29.00;;;;;;;0.56;83.55;101578.84;104383;1298;60604;-74
2022/12/03 11:34:21;;;;;;;50.50;27.00;;;;;;;0.60;83.98;101577.70;104484;1289;60590;-74